createdAt,value
2018-07-02T00:02:15.382Z,1.97
2018-07-02T00:56:25.737Z,1.73
2018-07-02T00:58:53.894Z,1.60
2018-07-02T01:01:22.072Z,1.80
2018-07-02T01:03:50.648Z,1.80
2018-07-02T01:06:18.808Z,1.40
2018-07-02T01:08:46.986Z,1.83
2018-07-02T01:11:15.148Z,1.50
2018-07-02T01:13:43.313Z,1.30
2018-07-02T01:16:11.497Z,1.67
2018-07-02T01:18:39.673Z,1.70
2018-07-02T01:21:07.835Z,1.90
2018-07-02T01:23:36.005Z,1.60
2018-07-02T01:26:04.181Z,1.40
2018-07-02T01:28:32.353Z,1.90
2018-07-02T01:31:00.530Z,1.40
2018-07-02T01:33:28.697Z,1.70
2018-07-02T01:35:56.861Z,1.40
2018-07-02T01:38:25.086Z,1.87
2018-07-02T01:40:53.253Z,1.73
2018-07-02T01:43:21.413Z,1.67
2018-07-02T01:45:49.580Z,1.63
2018-07-02T01:48:17.745Z,1.33
2018-07-02T01:50:45.913Z,1.60
2018-07-02T01:53:14.093Z,1.23
2018-07-02T01:55:42.301Z,1.83
2018-07-02T01:58:10.493Z,1.50
2018-07-02T02:00:38.660Z,1.60
2018-07-02T02:03:06.841Z,1.57
2018-07-02T02:05:35.013Z,1.40
2018-07-02T02:08:03.177Z,1.33
2018-07-02T02:10:31.345Z,1.40
2018-07-02T02:12:59.505Z,1.43
2018-07-02T02:15:27.674Z,2.00
2018-07-02T02:17:55.870Z,1.60
2018-07-02T02:20:24.033Z,1.40
2018-07-02T02:22:52.210Z,1.50
2018-07-02T02:25:20.366Z,1.80
2018-07-02T02:27:48.561Z,1.77
2018-07-02T02:30:16.730Z,1.60
2018-07-02T02:32:44.888Z,1.70
2018-07-02T02:35:13.062Z,1.40
2018-07-02T02:37:41.226Z,1.90
2018-07-02T02:40:09.393Z,1.77
2018-07-02T02:42:37.581Z,2.20
2018-07-02T02:45:06.265Z,1.77
2018-07-02T02:47:34.425Z,1.73
2018-07-02T02:50:02.779Z,1.80
2018-07-02T02:52:30.935Z,1.60
2018-07-02T02:54:59.105Z,1.67
2018-07-02T02:57:27.013Z,2.17
2018-07-02T02:59:55.245Z,2.00
2018-07-02T03:02:23.404Z,1.77
2018-07-02T03:04:51.576Z,1.60
2018-07-02T03:07:19.739Z,1.90
2018-07-02T03:09:48.023Z,1.70
2018-07-02T03:12:16.139Z,1.87
2018-07-02T03:14:44.297Z,1.70
2018-07-02T03:17:12.457Z,1.60
2018-07-02T03:19:40.641Z,1.90
2018-07-02T03:22:08.847Z,1.93
2018-07-02T03:24:36.981Z,1.57
2018-07-02T03:27:05.164Z,2.17
2018-07-02T03:29:33.328Z,1.90
2018-07-02T03:32:01.500Z,1.70
2018-07-02T03:34:29.665Z,2.10
2018-07-02T03:36:57.833Z,1.40
2018-07-02T03:39:26.001Z,2.17
2018-07-02T03:41:54.166Z,1.90
2018-07-02T03:44:22.329Z,1.50
2018-07-02T03:46:50.501Z,2.00
2018-07-02T03:49:18.677Z,1.83
2018-07-02T03:51:46.849Z,2.03
2018-07-02T03:54:15.014Z,1.73
2018-07-02T03:56:43.190Z,1.83
2018-07-02T03:59:11.382Z,1.73
2018-07-02T04:01:39.568Z,1.77
2018-07-02T04:04:07.721Z,1.80
2018-07-02T04:06:35.889Z,1.60
2018-07-02T04:09:07.277Z,1.83
2018-07-02T04:11:35.446Z,1.90
2018-07-02T04:14:03.621Z,1.67
2018-07-02T04:16:31.786Z,1.50
2018-07-02T04:19:05.293Z,1.70
2018-07-02T04:21:33.465Z,2.03
2018-07-02T04:24:01.701Z,1.73
2018-07-02T04:26:29.873Z,1.50
2018-07-02T04:28:58.192Z,1.57
2018-07-02T04:31:26.409Z,1.47
2018-07-02T04:33:54.579Z,1.70
2018-07-02T04:36:22.745Z,1.70
2018-07-02T04:38:51.073Z,1.67
2018-07-02T04:41:19.485Z,1.30
2018-07-02T04:43:47.648Z,1.40
2018-07-02T04:46:15.814Z,1.30
2018-07-02T04:48:43.980Z,1.73
2018-07-02T04:51:12.175Z,1.33
2018-07-02T04:53:40.377Z,1.40
2018-07-02T04:56:08.594Z,1.40
2018-07-02T04:58:36.753Z,1.80
2018-07-02T05:01:04.934Z,1.30
2018-07-02T05:03:33.101Z,1.60
2018-07-02T05:06:01.489Z,1.67
2018-07-02T05:08:29.681Z,1.53
2018-07-02T05:10:57.913Z,1.30
2018-07-02T05:13:26.117Z,1.40
2018-07-02T05:15:54.274Z,1.63
2018-07-02T05:18:22.457Z,1.40
2018-07-02T05:20:50.705Z,1.50
2018-07-02T05:23:18.910Z,1.40
2018-07-02T05:25:47.073Z,1.60
2018-07-02T05:28:15.246Z,1.43
2018-07-02T05:30:43.413Z,1.90
2018-07-02T05:33:11.581Z,1.60
2018-07-02T05:35:39.745Z,1.83
2018-07-02T05:38:08.053Z,1.47
2018-07-02T05:40:36.101Z,1.80
2018-07-02T05:43:04.518Z,1.97
2018-07-02T05:45:32.677Z,1.50
2018-07-02T05:48:00.845Z,1.50
2018-07-02T05:50:29.009Z,1.60
2018-07-02T05:52:57.180Z,1.23
2018-07-02T05:55:25.101Z,1.30
2018-07-02T05:57:53.274Z,1.73
2018-07-02T06:00:21.510Z,1.50
2018-07-02T06:02:49.645Z,1.77
2018-07-02T06:05:17.813Z,1.30
2018-07-02T06:07:46.025Z,2.17
2018-07-02T06:10:14.149Z,1.77
2018-07-02T06:12:42.317Z,2.00
2018-07-02T06:15:10.477Z,1.57
2018-07-02T06:17:38.702Z,1.40
2018-07-02T06:20:07.062Z,2.00
2018-07-02T06:22:35.237Z,1.60
2018-07-02T06:25:03.431Z,1.73
2018-07-02T06:27:31.610Z,1.80
2018-07-02T06:29:59.797Z,1.62
2018-07-02T06:32:27.977Z,1.60
2018-07-02T06:34:56.149Z,2.22
2018-07-02T06:37:24.326Z,1.70
2018-07-02T06:39:52.557Z,1.60
2018-07-02T06:42:20.733Z,1.80
2018-07-02T06:44:48.896Z,1.30
2018-07-02T06:47:17.065Z,1.20
2018-07-02T06:49:45.230Z,1.57
2018-07-02T06:52:13.411Z,1.60
2018-07-02T06:54:41.641Z,1.60
2018-07-02T06:57:10.349Z,1.30
2018-07-02T06:59:38.518Z,1.77
2018-07-02T07:02:06.698Z,1.47
2018-07-02T07:04:34.857Z,1.30
2018-07-02T07:07:03.061Z,1.63
2018-07-02T07:09:31.041Z,1.50
2018-07-02T07:11:59.210Z,1.23
2018-07-02T07:14:27.385Z,1.27
2018-07-02T07:16:55.657Z,1.20
2018-07-02T07:19:23.901Z,1.20
2018-07-02T07:21:52.064Z,1.33
2018-07-02T07:24:20.233Z,1.57
2018-07-02T07:26:48.401Z,1.03
2018-07-02T07:29:16.577Z,1.20
2018-07-02T07:31:44.749Z,1.60
2018-07-02T07:34:12.677Z,1.60
2018-07-02T07:36:40.849Z,1.10
2018-07-02T07:39:10.335Z,1.40
2018-07-02T07:41:38.510Z,1.20
2018-07-02T07:44:06.677Z,1.30
2018-07-02T08:06:15.825Z,0.93
2018-07-02T08:08:44.001Z,1.20
2018-07-02T08:11:12.170Z,1.10
2018-07-02T08:13:40.338Z,1.00
2018-07-02T08:16:08.505Z,1.27
2018-07-02T08:18:36.673Z,1.70
2018-07-02T08:21:04.841Z,1.10
2018-07-02T08:23:33.011Z,1.20
2018-07-02T08:26:01.201Z,1.20
2018-07-02T08:28:29.602Z,1.20
2018-07-02T08:30:57.773Z,1.30
2018-07-02T08:33:25.942Z,1.50
2018-07-02T08:35:54.105Z,1.63
2018-07-02T08:38:22.286Z,1.10
2018-07-02T08:40:50.475Z,1.03
2018-07-02T08:43:18.649Z,0.90
2018-07-02T08:45:46.809Z,1.27
2018-07-02T08:48:14.981Z,1.27
2018-07-02T08:50:43.177Z,1.40
2018-07-02T08:53:11.432Z,1.40
2018-07-02T08:55:39.688Z,1.15
2018-07-02T08:58:07.911Z,1.42
2018-07-02T09:00:36.083Z,1.23
2018-07-02T09:03:04.557Z,1.13
2018-07-02T09:05:32.749Z,1.30
2018-07-02T09:08:00.916Z,1.10
2018-07-02T09:10:29.505Z,1.20
2018-07-02T09:12:57.705Z,1.20
2018-07-02T09:15:25.890Z,1.30
2018-07-02T09:17:54.054Z,1.30
2018-07-02T09:20:22.277Z,1.20
2018-07-02T09:22:50.443Z,1.22
2018-07-02T09:25:18.811Z,1.20
2018-07-02T09:27:46.861Z,1.80
2018-07-02T09:30:15.043Z,1.63
2018-07-02T11:33:11.739Z,1.00
2018-07-02T11:35:39.913Z,1.20
2018-07-02T11:38:08.077Z,1.07
2018-07-02T11:40:36.365Z,1.10
2018-07-02T11:43:04.529Z,1.03
2018-07-02T11:45:32.730Z,0.97
2018-07-02T11:48:00.904Z,1.30
2018-07-02T11:50:29.073Z,1.00
2018-07-02T11:52:57.665Z,1.10
2018-07-02T11:55:25.833Z,1.33
2018-07-02T11:57:54.006Z,1.30
2018-07-02T12:56:54.473Z,1.17
2018-07-02T12:59:22.649Z,1.30
2018-07-02T13:01:50.818Z,1.20
2018-07-02T13:04:19.015Z,1.10
2018-07-02T13:06:47.157Z,1.20
2018-07-02T13:09:15.325Z,1.20
2018-07-02T13:11:43.502Z,1.47
2018-07-02T13:14:12.172Z,1.40
2018-07-02T13:16:40.382Z,1.40
2018-07-02T13:19:08.542Z,1.23
2018-07-02T13:21:37.170Z,1.43
2018-07-02T13:24:05.538Z,1.30
2018-07-02T13:26:33.825Z,1.30
2018-07-02T13:29:02.119Z,1.40
2018-07-02T13:31:30.623Z,1.10
2018-07-02T13:33:58.697Z,1.20
2018-07-02T13:36:26.900Z,1.20
2018-07-02T13:38:55.043Z,1.67
2018-07-02T13:41:23.229Z,1.10
2018-07-02T13:43:51.373Z,0.93
2018-07-02T13:46:19.553Z,1.10
2018-07-02T13:48:47.746Z,0.80
2018-07-02T13:51:15.983Z,1.40
2018-07-02T13:53:44.085Z,1.37
2018-07-02T13:56:12.254Z,1.23
2018-07-02T13:58:40.421Z,1.30
2018-07-02T14:01:08.608Z,1.20
2018-07-02T14:03:36.794Z,1.10
2018-07-02T14:06:04.950Z,1.30
2018-07-02T14:08:33.121Z,1.00
2018-07-02T14:11:01.290Z,1.33
2018-07-02T14:13:29.461Z,1.07
2018-07-02T14:15:57.705Z,1.10
2018-07-02T14:18:25.877Z,1.10
2018-07-02T14:20:53.801Z,0.97
2018-07-02T14:23:21.976Z,1.10
2018-07-02T14:25:50.958Z,1.00
2018-07-02T14:28:19.134Z,1.20
2018-07-02T14:30:47.301Z,1.10
2018-07-02T14:33:15.529Z,1.10
2018-07-02T14:35:43.637Z,1.10
2018-07-02T14:38:11.813Z,1.10
2018-07-02T14:40:40.082Z,1.00
2018-07-02T14:43:08.253Z,0.83
2018-07-02T14:45:36.675Z,0.90
2018-07-02T14:48:04.614Z,1.20
2018-07-02T14:50:32.805Z,1.80
2018-07-02T14:53:00.981Z,1.07
2018-07-02T14:55:29.154Z,1.10
2018-07-02T14:57:57.321Z,1.57
2018-07-02T15:00:25.489Z,1.00
2018-07-02T15:02:53.661Z,1.30
2018-07-02T15:05:21.841Z,1.03
2018-07-02T15:07:50.089Z,1.37
2018-07-02T15:10:18.317Z,1.30
2018-07-02T15:12:46.489Z,1.10
2018-07-02T15:15:14.672Z,1.00
2018-07-02T15:17:42.918Z,1.00
2018-07-02T15:20:11.073Z,1.23
2018-07-02T15:22:39.257Z,1.40
2018-07-02T15:25:07.421Z,1.00
2018-07-02T15:27:35.601Z,1.40
2018-07-02T15:30:03.789Z,1.13
2018-07-02T15:32:31.966Z,1.27
2018-07-02T15:35:00.141Z,1.00
2018-07-02T15:37:28.309Z,1.30
2018-07-02T15:39:56.486Z,1.30
2018-07-02T15:42:24.645Z,1.50
2018-07-02T15:44:52.817Z,1.10
2018-07-02T15:47:20.985Z,1.27
2018-07-02T15:49:49.153Z,1.23
2018-07-02T15:52:17.317Z,1.17
2018-07-02T15:54:45.514Z,1.00
2018-07-02T15:57:13.687Z,1.20
2018-07-02T15:59:41.873Z,0.90
2018-07-02T16:02:10.041Z,1.00
2018-07-02T16:04:38.213Z,1.03
2018-07-02T16:07:06.411Z,1.10
2018-07-02T16:09:34.602Z,1.00
2018-07-02T16:12:02.753Z,1.20
2018-07-02T16:14:30.929Z,1.30
2018-07-02T16:16:59.101Z,1.00
2018-07-02T16:19:27.278Z,0.80
2018-07-02T16:21:55.441Z,0.90
2018-07-02T16:24:23.615Z,1.00
2018-07-02T16:26:51.781Z,1.10
2018-07-02T16:29:19.953Z,1.20
2018-07-02T16:31:48.125Z,1.10
2018-07-02T16:34:16.297Z,1.10
2018-07-02T16:36:44.465Z,1.00
2018-07-02T16:39:12.637Z,1.27
2018-07-02T16:41:40.794Z,1.00
2018-07-02T16:44:08.961Z,0.90
2018-07-02T16:46:37.141Z,1.17
2018-07-02T16:49:05.322Z,1.10
2018-07-02T16:51:33.734Z,1.47
2018-07-02T16:54:02.142Z,1.23
2018-07-02T16:56:30.309Z,0.90
2018-07-02T16:58:58.497Z,1.07
2018-07-02T17:01:26.674Z,1.10
2018-07-02T17:03:54.845Z,1.10
2018-07-02T17:06:23.018Z,1.00
2018-07-02T17:08:51.197Z,1.30
2018-07-02T17:11:19.369Z,1.00
2018-07-02T17:13:47.553Z,1.10
2018-07-02T17:16:15.777Z,1.40
2018-07-02T17:18:43.949Z,1.20
2018-07-02T17:21:11.877Z,1.23
2018-07-02T17:23:40.046Z,1.30
2018-07-02T17:26:08.225Z,1.27
2018-07-02T17:28:36.394Z,1.07
2018-07-02T17:31:04.617Z,1.00
2018-07-02T17:33:32.787Z,0.97
2018-07-02T17:36:00.958Z,0.90
2018-07-02T17:38:29.121Z,1.23
2018-07-02T17:40:57.514Z,1.00
2018-07-02T17:43:25.690Z,0.90
2018-07-02T17:45:53.886Z,1.00
2018-07-02T17:48:22.058Z,1.15
2018-07-02T17:50:50.268Z,1.20
2018-07-02T17:53:18.540Z,1.10
2018-07-02T17:55:46.713Z,1.10
2018-07-02T17:58:14.890Z,0.90
2018-07-02T18:00:43.069Z,0.80
2018-07-02T18:03:11.238Z,1.00
2018-07-02T18:05:39.417Z,1.00
2018-07-02T18:08:07.345Z,0.90
2018-07-02T18:10:35.528Z,1.33
2018-07-02T18:13:03.698Z,1.03
2018-07-02T18:15:31.909Z,1.20
2018-07-02T18:18:00.083Z,1.17
2018-07-02T18:20:28.266Z,1.03
2018-07-02T18:22:56.437Z,0.90
2018-07-02T18:25:24.621Z,1.00
2018-07-02T18:27:52.798Z,1.17
2018-07-02T18:30:20.981Z,1.20
2018-07-02T18:32:49.157Z,1.40
2018-07-02T18:35:17.341Z,1.10
2018-07-02T18:37:45.545Z,0.83
2018-07-02T18:40:13.736Z,1.40
2018-07-02T18:42:41.907Z,1.00
2018-07-02T18:45:10.140Z,1.10
2018-07-02T18:47:38.312Z,1.17
2018-07-02T18:50:06.502Z,1.10
2018-07-02T18:52:34.674Z,1.00
2018-07-02T18:55:02.950Z,1.00
2018-07-02T18:57:31.128Z,1.10
2018-07-02T18:59:59.321Z,1.10
2018-07-02T19:02:27.514Z,1.20
2018-07-02T19:04:55.689Z,0.80
2018-07-02T19:07:23.865Z,1.20
2018-07-02T19:09:52.042Z,1.27
2018-07-02T19:12:20.221Z,1.40
2018-07-02T19:14:48.393Z,1.07
2018-07-02T19:17:16.619Z,1.17
2018-07-02T19:19:44.818Z,1.17
2018-07-02T19:22:13.001Z,1.47
2018-07-02T19:24:41.178Z,1.33
2018-07-02T19:27:09.363Z,1.17
2018-07-02T19:29:37.609Z,1.30
2018-07-02T19:32:06.044Z,1.30
2018-07-02T19:34:34.212Z,1.30
2018-07-02T19:37:02.393Z,1.43
2018-07-02T19:39:30.611Z,1.20
2018-07-02T19:41:58.789Z,1.03
2018-07-02T19:44:26.962Z,1.30
2018-07-02T19:46:55.138Z,1.03
2018-07-02T19:49:23.305Z,1.07
2018-07-02T19:51:51.481Z,1.50
2018-07-02T19:54:19.649Z,1.73
2018-07-02T19:56:47.630Z,1.33
2018-07-02T19:59:15.755Z,1.50
2018-07-02T20:01:43.929Z,1.40
2018-07-02T20:04:12.103Z,1.37
2018-07-02T20:06:40.336Z,1.40
2018-07-02T20:09:09.211Z,1.40
2018-07-02T20:11:37.444Z,1.40
2018-07-02T20:14:05.751Z,1.60
2018-07-02T20:16:33.929Z,1.50
2018-07-02T20:19:02.181Z,1.23
2018-07-02T20:21:30.269Z,1.40
2018-07-02T20:23:58.442Z,1.70
2018-07-02T20:26:26.625Z,2.03
2018-07-02T20:28:54.786Z,1.40
2018-07-02T20:31:22.961Z,1.40
2018-07-02T20:33:51.185Z,1.07
2018-07-02T20:36:19.369Z,1.30
2018-07-02T20:38:47.530Z,1.40
2018-07-02T20:41:15.714Z,1.60
2018-07-02T20:43:43.877Z,1.30
2018-07-02T20:46:12.049Z,1.40
2018-07-02T20:48:40.332Z,1.60
2018-07-02T20:51:08.561Z,1.67
2018-07-02T20:53:36.745Z,1.30
2018-07-02T20:56:04.917Z,1.70
2018-07-02T20:58:33.101Z,1.30
2018-07-02T21:01:01.285Z,1.33
2018-07-02T21:03:29.461Z,1.27
2018-07-02T21:05:57.634Z,1.30
2018-07-02T21:08:25.853Z,1.37
2018-07-02T21:10:54.026Z,1.27
2018-07-02T21:13:22.207Z,1.53
2018-07-02T21:15:50.411Z,1.83
2018-07-02T21:18:18.550Z,1.40
2018-07-02T21:20:46.734Z,1.23
2018-07-02T21:23:14.965Z,1.70
2018-07-02T21:25:43.142Z,1.50
2018-07-02T21:28:11.313Z,1.50
2018-07-02T21:30:39.485Z,1.20
2018-07-02T21:33:07.658Z,1.60
2018-07-02T21:35:35.841Z,1.30
2018-07-02T21:38:04.221Z,1.50
2018-07-02T21:40:32.389Z,1.50
2018-07-02T21:43:00.316Z,1.90
2018-07-02T21:45:28.487Z,1.50
2018-07-02T21:47:56.669Z,1.80
2018-07-02T21:50:24.841Z,1.30
2018-07-02T21:52:53.018Z,1.43
2018-07-02T21:55:21.185Z,1.67
2018-07-02T21:57:49.361Z,1.47
2018-07-02T22:00:17.551Z,1.50
2018-07-02T22:02:45.730Z,1.30
2018-07-02T22:05:13.905Z,1.70
2018-07-02T22:07:42.077Z,1.40
2018-07-02T22:10:10.270Z,1.83
2018-07-02T22:12:38.717Z,1.40
2018-07-02T22:15:06.926Z,1.83
2018-07-02T22:17:35.114Z,1.50
2018-07-02T22:20:03.317Z,1.43
2018-07-02T22:22:31.494Z,1.63
2018-07-02T22:24:59.652Z,1.17
2018-07-02T22:27:27.835Z,1.60
2018-07-02T22:29:56.003Z,1.70
2018-07-02T22:32:24.195Z,1.80
2018-07-02T22:34:52.362Z,1.57
2018-07-02T22:37:20.543Z,1.80
2018-07-02T22:39:48.705Z,1.80
2018-07-02T22:42:16.879Z,1.80
2018-07-02T22:44:45.049Z,1.80
2018-07-02T22:47:13.221Z,2.20
2018-07-02T22:49:41.453Z,2.00
2018-07-02T22:52:09.570Z,1.60
2018-07-02T22:54:37.745Z,1.40
2018-07-02T22:57:05.913Z,1.70
2018-07-02T22:59:34.093Z,1.60
2018-07-02T23:02:02.258Z,2.33
2018-07-02T23:04:30.433Z,1.90
2018-07-02T23:06:58.606Z,1.93
2018-07-02T23:09:26.529Z,1.80
2018-07-02T23:11:54.693Z,1.53
2018-07-02T23:14:22.868Z,1.87
2018-07-02T23:16:51.030Z,1.97
2018-07-02T23:19:19.213Z,1.70
2018-07-02T23:21:47.413Z,2.00
2018-07-02T23:24:15.599Z,1.70
2018-07-02T23:26:43.764Z,1.90
2018-07-02T23:29:11.938Z,2.37
2018-07-02T23:31:40.105Z,1.80
2018-07-02T23:34:08.285Z,2.23
2018-07-02T23:36:36.449Z,1.80
2018-07-02T23:39:08.090Z,2.60
2018-07-02T23:41:36.262Z,1.80
2018-07-02T23:44:04.457Z,1.90
2018-07-02T23:46:32.621Z,1.50
2018-07-02T23:49:00.802Z,2.00
2018-07-02T23:51:28.974Z,2.07
2018-07-02T23:53:57.150Z,2.20
2018-07-02T23:56:25.341Z,1.93
2018-07-02T23:58:53.581Z,1.70
